sensor_id;sensor_type;location;lat;lon;timestamp;temperature;humidity
69626;DHT22;56847;51.984;5.088;2023-04-01T00:01:06;12.40;87.10
69626;DHT22;56847;51.984;5.088;2023-04-01T00:03:34;12.40;87.20
69626;DHT22;56847;51.984;5.088;2023-04-01T00:06:02;12.40;87.10
69626;DHT22;56847;51.984;5.088;2023-04-01T00:08:29;12.40;87.10
69626;DHT22;56847;51.984;5.088;2023-04-01T00:10:56;12.40;87.00
69626;DHT22;56847;51.984;5.088;2023-04-01T00:13:25;12.40;87.00
69626;DHT22;56847;51.984;5.088;2023-04-01T00:15:53;12.40;87.10
69626;DHT22;56847;51.984;5.088;2023-04-01T00:18:22;12.40;86.90
69626;DHT22;56847;51.984;5.088;2023-04-01T00:20:52;12.30;86.90
69626;DHT22;56847;51.984;5.088;2023-04-01T00:23:21;12.30;87.00
69626;DHT22;56847;51.984;5.088;2023-04-01T00:25:49;12.30;87.00
69626;DHT22;56847;51.984;5.088;2023-04-01T00:28:18;12.40;87.00
69626;DHT22;56847;51.984;5.088;2023-04-01T00:30:45;12.30;86.80
69626;DHT22;56847;51.984;5.088;2023-04-01T00:33:13;12.30;86.90
69626;DHT22;56847;51.984;5.088;2023-04-01T00:35:40;12.30;86.90
69626;DHT22;56847;51.984;5.088;2023-04-01T00:38:07;12.30;86.70
69626;DHT22;56847;51.984;5.088;2023-04-01T00:40:43;12.30;86.60
69626;DHT22;56847;51.984;5.088;2023-04-01T00:43:19;12.30;86.80
69626;DHT22;56847;51.984;5.088;2023-04-01T00:45:48;12.30;86.90
69626;DHT22;56847;51.984;5.088;2023-04-01T00:48:29;12.20;86.70
69626;DHT22;56847;51.984;5.088;2023-04-01T00:51:04;12.20;86.70
69626;DHT22;56847;51.984;5.088;2023-04-01T00:53:33;12.20;86.70
69626;DHT22;56847;51.984;5.088;2023-04-01T00:56:39;12.10;86.80
69626;DHT22;56847;51.984;5.088;2023-04-01T00:59:10;12.10;86.90
69626;DHT22;56847;51.984;5.088;2023-04-01T01:01:37;12.10;87.00
69626;DHT22;56847;51.984;5.088;2023-04-01T01:04:04;12.10;86.90
69626;DHT22;56847;51.984;5.088;2023-04-01T01:14:41;12.00;87.10
69626;DHT22;56847;51.984;5.088;2023-04-01T01:22:58;12.00;87.10
69626;DHT22;56847;51.984;5.088;2023-04-01T01:26:05;11.90;87.10
69626;DHT22;56847;51.984;5.088;2023-04-01T01:31:24;11.90;87.30
69626;DHT22;56847;51.984;5.088;2023-04-01T01:36:29;11.80;87.50
69626;DHT22;56847;51.984;5.088;2023-04-01T01:38:58;11.80;87.50
69626;DHT22;56847;51.984;5.088;2023-04-01T01:41:26;11.80;87.60
69626;DHT22;56847;51.984;5.088;2023-04-01T01:43:56;11.80;87.50
69626;DHT22;56847;51.984;5.088;2023-04-01T01:46:26;11.80;87.60
69626;DHT22;56847;51.984;5.088;2023-04-01T01:48:59;11.70;87.50
69626;DHT22;56847;51.984;5.088;2023-04-01T01:51:28;11.70;87.80
69626;DHT22;56847;51.984;5.088;2023-04-01T01:53:55;11.70;87.80
69626;DHT22;56847;51.984;5.088;2023-04-01T01:56:26;11.70;88.00
69626;DHT22;56847;51.984;5.088;2023-04-01T01:59:03;11.70;88.00
69626;DHT22;56847;51.984;5.088;2023-04-01T02:01:36;11.80;88.00
69626;DHT22;56847;51.984;5.088;2023-04-01T02:04:11;11.80;87.80
69626;DHT22;56847;51.984;5.088;2023-04-01T02:06:45;11.70;87.90
69626;DHT22;56847;51.984;5.088;2023-04-01T02:09:15;11.70;87.70
69626;DHT22;56847;51.984;5.088;2023-04-01T02:11:51;11.70;87.70
69626;DHT22;56847;51.984;5.088;2023-04-01T02:14:20;11.60;87.70
69626;DHT22;56847;51.984;5.088;2023-04-01T02:19:31;11.60;87.90
69626;DHT22;56847;51.984;5.088;2023-04-01T02:22:01;11.60;88.10
69626;DHT22;56847;51.984;5.088;2023-04-01T02:24:31;11.60;88.10
69626;DHT22;56847;51.984;5.088;2023-04-01T02:26:59;11.60;88.30
69626;DHT22;56847;51.984;5.088;2023-04-01T02:29:27;11.60;88.20
69626;DHT22;56847;51.984;5.088;2023-04-01T02:31:58;11.60;88.20
69626;DHT22;56847;51.984;5.088;2023-04-01T02:34:26;11.60;88.10
69626;DHT22;56847;51.984;5.088;2023-04-01T02:36:54;11.60;88.10
69626;DHT22;56847;51.984;5.088;2023-04-01T02:39:22;11.60;88.00
69626;DHT22;56847;51.984;5.088;2023-04-01T02:41:49;11.60;88.10
69626;DHT22;56847;51.984;5.088;2023-04-01T02:44:16;11.60;88.00
69626;DHT22;56847;51.984;5.088;2023-04-01T02:46:43;11.60;88.10
69626;DHT22;56847;51.984;5.088;2023-04-01T02:49:10;11.60;88.20
69626;DHT22;56847;51.984;5.088;2023-04-01T02:51:37;11.60;88.10
69626;DHT22;56847;51.984;5.088;2023-04-01T02:54:04;11.60;88.00
69626;DHT22;56847;51.984;5.088;2023-04-01T02:56:31;11.60;87.90
69626;DHT22;56847;51.984;5.088;2023-04-01T02:58:58;11.60;88.10
69626;DHT22;56847;51.984;5.088;2023-04-01T03:01:25;11.60;88.10
69626;DHT22;56847;51.984;5.088;2023-04-01T03:03:53;11.60;88.10
69626;DHT22;56847;51.984;5.088;2023-04-01T03:06:19;11.60;88.10
69626;DHT22;56847;51.984;5.088;2023-04-01T03:08:47;11.60;88.10
69626;DHT22;56847;51.984;5.088;2023-04-01T03:11:14;11.60;88.20
69626;DHT22;56847;51.984;5.088;2023-04-01T03:13:41;11.60;88.10
69626;DHT22;56847;51.984;5.088;2023-04-01T03:16:08;11.60;88.20
69626;DHT22;56847;51.984;5.088;2023-04-01T03:18:36;11.50;88.10
69626;DHT22;56847;51.984;5.088;2023-04-01T03:21:16;11.50;88.40
69626;DHT22;56847;51.984;5.088;2023-04-01T03:23:44;11.60;88.30
69626;DHT22;56847;51.984;5.088;2023-04-01T03:26:11;11.60;88.40
69626;DHT22;56847;51.984;5.088;2023-04-01T03:28:38;11.60;88.40
69626;DHT22;56847;51.984;5.088;2023-04-01T03:31:05;11.60;88.40
69626;DHT22;56847;51.984;5.088;2023-04-01T03:33:39;11.60;88.40
69626;DHT22;56847;51.984;5.088;2023-04-01T03:36:07;11.60;88.40
69626;DHT22;56847;51.984;5.088;2023-04-01T03:38:35;11.60;88.30
69626;DHT22;56847;51.984;5.088;2023-04-01T03:41:02;11.60;88.40
69626;DHT22;56847;51.984;5.088;2023-04-01T03:43:32;11.70;88.40
69626;DHT22;56847;51.984;5.088;2023-04-01T03:46:00;11.70;88.50
69626;DHT22;56847;51.984;5.088;2023-04-01T03:48:27;11.70;88.40
69626;DHT22;56847;51.984;5.088;2023-04-01T03:50:54;11.70;88.50
69626;DHT22;56847;51.984;5.088;2023-04-01T03:53:22;11.70;88.50
69626;DHT22;56847;51.984;5.088;2023-04-01T03:55:51;11.70;88.50
69626;DHT22;56847;51.984;5.088;2023-04-01T03:58:18;11.80;88.40
69626;DHT22;56847;51.984;5.088;2023-04-01T04:00:46;11.80;88.40
69626;DHT22;56847;51.984;5.088;2023-04-01T04:03:13;11.80;88.40
69626;DHT22;56847;51.984;5.088;2023-04-01T04:05:48;11.80;88.40
69626;DHT22;56847;51.984;5.088;2023-04-01T04:08:17;11.80;88.50
69626;DHT22;56847;51.984;5.088;2023-04-01T04:10:44;11.90;88.50
69626;DHT22;56847;51.984;5.088;2023-04-01T04:13:11;11.90;88.50
69626;DHT22;56847;51.984;5.088;2023-04-01T04:15:44;11.90;88.50
69626;DHT22;56847;51.984;5.088;2023-04-01T04:18:11;11.90;88.40
69626;DHT22;56847;51.984;5.088;2023-04-01T04:20:44;12.00;88.50
69626;DHT22;56847;51.984;5.088;2023-04-01T04:23:12;12.00;88.40
69626;DHT22;56847;51.984;5.088;2023-04-01T04:25:40;12.00;88.30
69626;DHT22;56847;51.984;5.088;2023-04-01T04:28:07;12.00;88.50
69626;DHT22;56847;51.984;5.088;2023-04-01T04:30:34;12.00;88.40
69626;DHT22;56847;51.984;5.088;2023-04-01T04:33:04;12.00;88.30
69626;DHT22;56847;51.984;5.088;2023-04-01T04:35:33;12.00;88.40
69626;DHT22;56847;51.984;5.088;2023-04-01T04:38:00;12.00;88.40
69626;DHT22;56847;51.984;5.088;2023-04-01T04:40:27;12.10;88.50
69626;DHT22;56847;51.984;5.088;2023-04-01T04:42:54;12.10;88.30
69626;DHT22;56847;51.984;5.088;2023-04-01T04:45:21;12.10;88.20
69626;DHT22;56847;51.984;5.088;2023-04-01T04:47:55;12.10;88.10
69626;DHT22;56847;51.984;5.088;2023-04-01T04:50:22;12.10;88.20
69626;DHT22;56847;51.984;5.088;2023-04-01T04:52:50;12.10;88.10
69626;DHT22;56847;51.984;5.088;2023-04-01T04:55:17;12.10;88.00
69626;DHT22;56847;51.984;5.088;2023-04-01T04:57:49;12.10;88.00
69626;DHT22;56847;51.984;5.088;2023-04-01T05:00:16;12.10;88.00
69626;DHT22;56847;51.984;5.088;2023-04-01T05:02:52;12.20;87.90
69626;DHT22;56847;51.984;5.088;2023-04-01T05:05:20;12.10;87.80
69626;DHT22;56847;51.984;5.088;2023-04-01T05:07:47;12.20;88.00
69626;DHT22;56847;51.984;5.088;2023-04-01T05:10:14;12.10;87.70
69626;DHT22;56847;51.984;5.088;2023-04-01T05:12:41;12.10;87.80
69626;DHT22;56847;51.984;5.088;2023-04-01T05:15:09;12.20;87.70
69626;DHT22;56847;51.984;5.088;2023-04-01T05:17:38;12.10;87.60
69626;DHT22;56847;51.984;5.088;2023-04-01T05:20:06;12.10;87.80
69626;DHT22;56847;51.984;5.088;2023-04-01T05:22:34;12.20;87.80
69626;DHT22;56847;51.984;5.088;2023-04-01T05:25:05;12.20;87.70
69626;DHT22;56847;51.984;5.088;2023-04-01T05:27:32;12.20;87.50
69626;DHT22;56847;51.984;5.088;2023-04-01T05:29:59;12.20;87.60
69626;DHT22;56847;51.984;5.088;2023-04-01T05:32:41;12.20;87.50
69626;DHT22;56847;51.984;5.088;2023-04-01T05:35:13;12.20;87.60
69626;DHT22;56847;51.984;5.088;2023-04-01T05:37:40;12.20;87.40
69626;DHT22;56847;51.984;5.088;2023-04-01T05:40:08;12.20;87.40
69626;DHT22;56847;51.984;5.088;2023-04-01T05:42:35;12.20;87.50
69626;DHT22;56847;51.984;5.088;2023-04-01T05:45:04;12.20;87.50
69626;DHT22;56847;51.984;5.088;2023-04-01T05:48:01;12.20;87.50
69626;DHT22;56847;51.984;5.088;2023-04-01T05:50:32;12.20;87.50
69626;DHT22;56847;51.984;5.088;2023-04-01T05:52:59;12.20;87.40
69626;DHT22;56847;51.984;5.088;2023-04-01T05:55:29;12.20;87.20
69626;DHT22;56847;51.984;5.088;2023-04-01T05:57:56;12.20;87.20
69626;DHT22;56847;51.984;5.088;2023-04-01T06:00:26;12.20;87.20
69626;DHT22;56847;51.984;5.088;2023-04-01T06:02:59;12.20;87.10
69626;DHT22;56847;51.984;5.088;2023-04-01T06:05:38;12.20;86.90
69626;DHT22;56847;51.984;5.088;2023-04-01T06:08:15;12.20;86.90
69626;DHT22;56847;51.984;5.088;2023-04-01T06:11:01;12.20;87.10
69626;DHT22;56847;51.984;5.088;2023-04-01T06:14:16;12.20;87.00
69626;DHT22;56847;51.984;5.088;2023-04-01T06:17:16;12.20;87.10
69626;DHT22;56847;51.984;5.088;2023-04-01T06:29:26;12.30;87.00
69626;DHT22;56847;51.984;5.088;2023-04-01T06:40:38;12.30;86.50
69626;DHT22;56847;51.984;5.088;2023-04-01T06:46:26;12.20;86.40
69626;DHT22;56847;51.984;5.088;2023-04-01T06:52:56;12.20;86.50
69626;DHT22;56847;51.984;5.088;2023-04-01T06:55:52;12.20;86.50
69626;DHT22;56847;51.984;5.088;2023-04-01T06:59:02;12.20;86.50
69626;DHT22;56847;51.984;5.088;2023-04-01T07:01:36;12.20;86.60
69626;DHT22;56847;51.984;5.088;2023-04-01T07:04:26;12.20;86.50
69626;DHT22;56847;51.984;5.088;2023-04-01T07:06:58;12.10;86.70
69626;DHT22;56847;51.984;5.088;2023-04-01T07:09:32;12.10;86.80
69626;DHT22;56847;51.984;5.088;2023-04-01T07:15:38;12.00;87.40
69626;DHT22;56847;51.984;5.088;2023-04-01T07:18:32;12.00;87.40
69626;DHT22;56847;51.984;5.088;2023-04-01T07:21:04;12.00;87.70
69626;DHT22;56847;51.984;5.088;2023-04-01T07:23:42;12.00;87.50
69626;DHT22;56847;51.984;5.088;2023-04-01T07:26:29;12.00;87.70
69626;DHT22;56847;51.984;5.088;2023-04-01T07:29:12;12.00;87.60
69626;DHT22;56847;51.984;5.088;2023-04-01T07:35:10;12.00;87.60
69626;DHT22;56847;51.984;5.088;2023-04-01T07:38:43;12.00;88.00
69626;DHT22;56847;51.984;5.088;2023-04-01T07:41:02;12.10;87.80
69626;DHT22;56847;51.984;5.088;2023-04-01T07:46:56;12.10;87.70
69626;DHT22;56847;51.984;5.088;2023-04-01T07:49:30;12.10;87.70
69626;DHT22;56847;51.984;5.088;2023-04-01T07:55:23;12.10;87.60
69626;DHT22;56847;51.984;5.088;2023-04-01T08:06:03;12.20;87.70
69626;DHT22;56847;51.984;5.088;2023-04-01T08:08:53;12.20;87.60
69626;DHT22;56847;51.984;5.088;2023-04-01T08:12:06;12.20;87.40
69626;DHT22;56847;51.984;5.088;2023-04-01T08:15:42;12.30;87.60
69626;DHT22;56847;51.984;5.088;2023-04-01T08:18:18;12.30;87.40
69626;DHT22;56847;51.984;5.088;2023-04-01T08:20:56;12.40;87.30
69626;DHT22;56847;51.984;5.088;2023-04-01T08:23:25;12.40;87.30
69626;DHT22;56847;51.984;5.088;2023-04-01T08:26:23;12.40;87.00
69626;DHT22;56847;51.984;5.088;2023-04-01T08:34:18;12.50;87.40
69626;DHT22;56847;51.984;5.088;2023-04-01T08:36:53;12.60;87.10
69626;DHT22;56847;51.984;5.088;2023-04-01T08:39:48;12.70;86.90
69626;DHT22;56847;51.984;5.088;2023-04-01T08:48:34;12.80;87.00
69626;DHT22;56847;51.984;5.088;2023-04-01T09:11:16;13.10;86.40
69626;DHT22;56847;51.984;5.088;2023-04-01T09:14:32;13.20;86.00
69626;DHT22;56847;51.984;5.088;2023-04-01T09:31:53;13.10;85.90
69626;DHT22;56847;51.984;5.088;2023-04-01T09:51:34;13.30;85.60
69626;DHT22;56847;51.984;5.088;2023-04-01T09:57:03;13.30;85.60
69626;DHT22;56847;51.984;5.088;2023-04-01T10:05:54;13.30;85.50
69626;DHT22;56847;51.984;5.088;2023-04-01T10:09:06;13.30;85.70
69626;DHT22;56847;51.984;5.088;2023-04-01T10:26:12;13.80;85.30
69626;DHT22;56847;51.984;5.088;2023-04-01T10:35:28;13.80;85.10
69626;DHT22;56847;51.984;5.088;2023-04-01T10:38:37;13.80;84.90
69626;DHT22;56847;51.984;5.088;2023-04-01T10:41:29;13.80;84.80
69626;DHT22;56847;51.984;5.088;2023-04-01T10:50:23;13.70;85.00
69626;DHT22;56847;51.984;5.088;2023-04-01T10:56:39;13.70;85.00
69626;DHT22;56847;51.984;5.088;2023-04-01T11:17:48;14.10;83.90
69626;DHT22;56847;51.984;5.088;2023-04-01T11:20:45;14.10;84.00
69626;DHT22;56847;51.984;5.088;2023-04-01T11:44:12;13.30;85.60
69626;DHT22;56847;51.984;5.088;2023-04-01T11:47:18;13.20;86.20
69626;DHT22;56847;51.984;5.088;2023-04-01T11:55:55;13.70;88.00
69626;DHT22;56847;51.984;5.088;2023-04-01T12:07:15;14.50;86.30
69626;DHT22;56847;51.984;5.088;2023-04-01T12:09:52;14.70;86.30
69626;DHT22;56847;51.984;5.088;2023-04-01T12:12:39;14.60;84.30
69626;DHT22;56847;51.984;5.088;2023-04-01T12:15:44;14.50;84.10
69626;DHT22;56847;51.984;5.088;2023-04-01T12:18:42;14.30;84.70
69626;DHT22;56847;51.984;5.088;2023-04-01T12:21:24;14.20;85.10
69626;DHT22;56847;51.984;5.088;2023-04-01T12:26:58;14.00;85.50
69626;DHT22;56847;51.984;5.088;2023-04-01T12:35:47;13.70;85.70
69626;DHT22;56847;51.984;5.088;2023-04-01T12:49:25;13.70;87.40
69626;DHT22;56847;51.984;5.088;2023-04-01T12:52:12;13.70;87.40
69626;DHT22;56847;51.984;5.088;2023-04-01T12:55:01;13.70;87.40
69626;DHT22;56847;51.984;5.088;2023-04-01T13:00:30;13.70;87.30
69626;DHT22;56847;51.984;5.088;2023-04-01T13:09:11;13.60;87.70
69626;DHT22;56847;51.984;5.088;2023-04-01T13:15:42;13.70;87.70
69626;DHT22;56847;51.984;5.088;2023-04-01T13:17:57;13.80;87.70
69626;DHT22;56847;51.984;5.088;2023-04-01T13:29:22;13.80;87.50
69626;DHT22;56847;51.984;5.088;2023-04-01T13:32:16;13.80;87.70
69626;DHT22;56847;51.984;5.088;2023-04-01T13:38:06;13.90;87.50
69626;DHT22;56847;51.984;5.088;2023-04-01T13:46:10;14.00;88.30
69626;DHT22;56847;51.984;5.088;2023-04-01T13:49:18;14.20;88.70
69626;DHT22;56847;51.984;5.088;2023-04-01T13:57:31;15.00;87.10
69626;DHT22;56847;51.984;5.088;2023-04-01T14:00:33;15.10;87.30
69626;DHT22;56847;51.984;5.088;2023-04-01T14:20:20;13.90;85.90
69626;DHT22;56847;51.984;5.088;2023-04-01T14:23:18;13.70;86.80
69626;DHT22;56847;51.984;5.088;2023-04-01T14:26:11;13.60;87.20
69626;DHT22;56847;51.984;5.088;2023-04-01T14:31:42;13.40;87.60
69626;DHT22;56847;51.984;5.088;2023-04-01T14:37:25;13.20;88.30
69626;DHT22;56847;51.984;5.088;2023-04-01T14:50:57;13.00;88.90
69626;DHT22;56847;51.984;5.088;2023-04-01T14:53:31;12.90;89.40
69626;DHT22;56847;51.984;5.088;2023-04-01T14:56:01;13.00;89.90
69626;DHT22;56847;51.984;5.088;2023-04-01T14:58:50;13.00;90.00
69626;DHT22;56847;51.984;5.088;2023-04-01T15:04:46;13.00;89.80
69626;DHT22;56847;51.984;5.088;2023-04-01T15:07:35;13.10;90.10
69626;DHT22;56847;51.984;5.088;2023-04-01T15:10:17;13.20;90.10
69626;DHT22;56847;51.984;5.088;2023-04-01T15:13:15;13.20;89.70
69626;DHT22;56847;51.984;5.088;2023-04-01T15:16:06;13.20;89.80
69626;DHT22;56847;51.984;5.088;2023-04-01T15:19:11;13.30;89.90
69626;DHT22;56847;51.984;5.088;2023-04-01T15:34:11;13.20;90.00
69626;DHT22;56847;51.984;5.088;2023-04-01T15:39:14;13.10;90.00
69626;DHT22;56847;51.984;5.088;2023-04-01T15:44:46;13.20;90.20
69626;DHT22;56847;51.984;5.088;2023-04-01T15:47:33;13.20;90.20
69626;DHT22;56847;51.984;5.088;2023-04-01T15:50:21;13.20;90.00
69626;DHT22;56847;51.984;5.088;2023-04-01T15:58:47;13.20;90.20
69626;DHT22;56847;51.984;5.088;2023-04-01T16:01:47;13.20;90.20
69626;DHT22;56847;51.984;5.088;2023-04-01T16:15:25;13.20;89.90
69626;DHT22;56847;51.984;5.088;2023-04-01T16:23:26;13.10;90.00
69626;DHT22;56847;51.984;5.088;2023-04-01T16:26:16;13.10;89.60
69626;DHT22;56847;51.984;5.088;2023-04-01T16:34:29;13.00;89.90
69626;DHT22;56847;51.984;5.088;2023-04-01T16:37:09;13.10;90.10
69626;DHT22;56847;51.984;5.088;2023-04-01T16:42:47;13.00;89.80
69626;DHT22;56847;51.984;5.088;2023-04-01T16:45:40;13.00;90.00
69626;DHT22;56847;51.984;5.088;2023-04-01T16:48:15;13.00;90.20
69626;DHT22;56847;51.984;5.088;2023-04-01T17:07:24;12.80;89.50
69626;DHT22;56847;51.984;5.088;2023-04-01T17:10:07;12.80;89.90
69626;DHT22;56847;51.984;5.088;2023-04-01T17:15:21;12.80;90.00
69626;DHT22;56847;51.984;5.088;2023-04-01T17:23:38;12.70;89.90
69626;DHT22;56847;51.984;5.088;2023-04-01T17:26:28;12.80;90.10
69626;DHT22;56847;51.984;5.088;2023-04-01T17:29:26;12.70;89.50
69626;DHT22;56847;51.984;5.088;2023-04-01T17:32:27;12.70;89.60
69626;DHT22;56847;51.984;5.088;2023-04-01T17:37:38;12.60;89.70
69626;DHT22;56847;51.984;5.088;2023-04-01T17:45:47;12.60;90.00
69626;DHT22;56847;51.984;5.088;2023-04-01T17:48:20;12.60;89.80
69626;DHT22;56847;51.984;5.088;2023-04-01T17:59:36;12.30;89.50
69626;DHT22;56847;51.984;5.088;2023-04-01T18:07:30;12.30;89.80
69626;DHT22;56847;51.984;5.088;2023-04-01T18:10:23;12.30;89.80
69626;DHT22;56847;51.984;5.088;2023-04-01T18:13:29;12.30;89.80
69626;DHT22;56847;51.984;5.088;2023-04-01T18:24:26;12.20;89.50
69626;DHT22;56847;51.984;5.088;2023-04-01T18:27:15;12.20;89.70
69626;DHT22;56847;51.984;5.088;2023-04-01T18:29:52;12.20;89.70
69626;DHT22;56847;51.984;5.088;2023-04-01T18:32:28;12.20;89.90
69626;DHT22;56847;51.984;5.088;2023-04-01T18:35:24;12.20;90.00
69626;DHT22;56847;51.984;5.088;2023-04-01T18:38:00;12.20;89.70
69626;DHT22;56847;51.984;5.088;2023-04-01T18:40:38;12.20;89.90
69626;DHT22;56847;51.984;5.088;2023-04-01T18:51:53;12.20;89.70
69626;DHT22;56847;51.984;5.088;2023-04-01T18:54:29;12.10;89.50
69626;DHT22;56847;51.984;5.088;2023-04-01T18:57:07;12.10;89.70
69626;DHT22;56847;51.984;5.088;2023-04-01T18:59:45;12.10;89.60
69626;DHT22;56847;51.984;5.088;2023-04-01T19:10:31;12.00;89.40
69626;DHT22;56847;51.984;5.088;2023-04-01T19:16:27;12.00;89.50
69626;DHT22;56847;51.984;5.088;2023-04-01T19:18:58;11.90;89.00
69626;DHT22;56847;51.984;5.088;2023-04-01T19:24:14;11.90;89.70
69626;DHT22;56847;51.984;5.088;2023-04-01T19:27:03;11.90;89.50
69626;DHT22;56847;51.984;5.088;2023-04-01T19:56:58;11.80;89.20
69626;DHT22;56847;51.984;5.088;2023-04-01T20:04:56;11.90;89.50
69626;DHT22;56847;51.984;5.088;2023-04-01T20:07:35;11.80;88.90
69626;DHT22;56847;51.984;5.088;2023-04-01T20:10:43;11.80;89.00
69626;DHT22;56847;51.984;5.088;2023-04-01T20:13:35;11.80;88.90
69626;DHT22;56847;51.984;5.088;2023-04-01T20:16:08;11.80;89.00
69626;DHT22;56847;51.984;5.088;2023-04-01T20:21:31;11.70;88.50
69626;DHT22;56847;51.984;5.088;2023-04-01T20:26:43;11.60;88.30
69626;DHT22;56847;51.984;5.088;2023-04-01T20:32:29;11.60;88.60
69626;DHT22;56847;51.984;5.088;2023-04-01T20:35:37;11.60;88.40
69626;DHT22;56847;51.984;5.088;2023-04-01T20:48:00;11.50;88.50
69626;DHT22;56847;51.984;5.088;2023-04-01T20:51:25;11.50;88.40
69626;DHT22;56847;51.984;5.088;2023-04-01T20:57:24;11.40;88.30
69626;DHT22;56847;51.984;5.088;2023-04-01T21:03:45;11.30;88.50
69626;DHT22;56847;51.984;5.088;2023-04-01T21:25:36;11.10;88.20
69626;DHT22;56847;51.984;5.088;2023-04-01T21:28:33;11.10;88.30
69626;DHT22;56847;51.984;5.088;2023-04-01T21:39:19;11.00;88.30
69626;DHT22;56847;51.984;5.088;2023-04-01T21:42:11;10.90;88.00
69626;DHT22;56847;51.984;5.088;2023-04-01T21:44:58;10.90;88.10
69626;DHT22;56847;51.984;5.088;2023-04-01T21:50:39;10.80;87.80
69626;DHT22;56847;51.984;5.088;2023-04-01T21:53:22;10.80;88.10
69626;DHT22;56847;51.984;5.088;2023-04-01T21:56:21;10.80;87.90
69626;DHT22;56847;51.984;5.088;2023-04-01T22:02:14;10.70;88.30
69626;DHT22;56847;51.984;5.088;2023-04-01T22:13:07;10.60;88.80
69626;DHT22;56847;51.984;5.088;2023-04-01T22:18:39;10.60;88.30
69626;DHT22;56847;51.984;5.088;2023-04-01T22:21:26;10.60;88.40
69626;DHT22;56847;51.984;5.088;2023-04-01T22:28:05;10.60;88.20
69626;DHT22;56847;51.984;5.088;2023-04-01T22:30:23;10.60;88.40
69626;DHT22;56847;51.984;5.088;2023-04-01T22:33:04;10.60;88.40
69626;DHT22;56847;51.984;5.088;2023-04-01T22:43:41;10.50;88.20
69626;DHT22;56847;51.984;5.088;2023-04-01T22:52:44;10.50;88.70
69626;DHT22;56847;51.984;5.088;2023-04-01T22:55:24;10.50;88.90
69626;DHT22;56847;51.984;5.088;2023-04-01T22:57:57;10.50;88.60
69626;DHT22;56847;51.984;5.088;2023-04-01T23:00:55;10.50;88.30
69626;DHT22;56847;51.984;5.088;2023-04-01T23:03:37;10.50;88.50
69626;DHT22;56847;51.984;5.088;2023-04-01T23:06:15;10.50;88.70
69626;DHT22;56847;51.984;5.088;2023-04-01T23:11:37;10.40;88.60
69626;DHT22;56847;51.984;5.088;2023-04-01T23:20:01;10.40;88.20
69626;DHT22;56847;51.984;5.088;2023-04-01T23:22:34;10.30;88.40
69626;DHT22;56847;51.984;5.088;2023-04-01T23:30:55;10.20;88.70
69626;DHT22;56847;51.984;5.088;2023-04-01T23:33:26;10.20;88.80
69626;DHT22;56847;51.984;5.088;2023-04-01T23:35:59;10.20;88.90
69626;DHT22;56847;51.984;5.088;2023-04-01T23:38:38;10.20;89.00
69626;DHT22;56847;51.984;5.088;2023-04-01T23:41:06;10.30;89.00
69626;DHT22;56847;51.984;5.088;2023-04-01T23:43:39;10.30;88.70
69626;DHT22;56847;51.984;5.088;2023-04-01T23:46:08;10.30;88.90
69626;DHT22;56847;51.984;5.088;2023-04-01T23:48:37;10.30;88.70
69626;DHT22;56847;51.984;5.088;2023-04-01T23:51:27;10.30;88.60
69626;DHT22;56847;51.984;5.088;2023-04-01T23:54:04;10.20;88.20
69626;DHT22;56847;51.984;5.088;2023-04-01T23:56:56;10.20;88.40
69626;DHT22;56847;51.984;5.088;2023-04-01T23:59:31;10.20;88.30
